Time;durP1;ratioP1;P1;durP2;ratioP2;P2;SDS_P1;SDS_P2;PMS_P1;PMS_P2;Temp;Humidity;BMP_temperature;BMP_pressure;BME280_temperature;BME280_humidity;BME280_pressure;Samples;Min_cycle;Max_cycle;Signal;HPM_P1;HPM_P2
2022/05/24 00:02:08;;;;;;;1.00;1.00;;;22.00;69.60;;;;;;5089164;28;44016;-69
2022/05/24 00:04:36;;;;;;;1.20;1.20;;;22.00;69.90;;;;;;5088446;28;44865;-69
2022/05/24 00:07:04;;;;;;;1.10;1.10;;;21.90;70.10;;;;;;5070017;28;44358;-70
2022/05/24 00:09:32;;;;;;;1.00;1.00;;;21.90;70.20;;;;;;5088929;28;43873;-69
2022/05/24 00:12:00;;;;;;;1.17;1.17;;;21.80;70.20;;;;;;5089434;28;44073;-68
2022/05/24 00:17:15;;;;;;;1.10;1.10;;;22.00;71.70;;;;;;5070068;28;44972;-69
2022/05/24 00:19:46;;;;;;;1.10;1.10;;;22.20;71.30;;;;;;5088717;28;43924;-70
2022/05/24 00:22:14;;;;;;;1.10;1.10;;;22.40;70.50;;;;;;5088856;28;44025;-69
2022/05/24 00:24:42;;;;;;;1.10;1.10;;;22.50;69.90;;;;;;5069780;28;45399;-69
2022/05/24 00:27:10;;;;;;;0.90;0.90;;;22.50;69.90;;;;;;5070064;28;45597;-69
2022/05/24 00:29:38;;;;;;;1.10;1.10;;;22.40;69.70;;;;;;5088269;28;43997;-69
2022/05/24 00:32:06;;;;;;;1.20;1.20;;;22.30;69.10;;;;;;5070342;28;43983;-70
2022/05/24 00:34:36;;;;;;;1.23;1.23;;;22.20;69.30;;;;;;5087963;28;43842;-70
2022/05/24 00:37:04;;;;;;;1.00;1.00;;;22.10;69.50;;;;;;5088037;28;43375;-70
2022/05/24 00:39:32;;;;;;;1.10;1.10;;;22.00;69.60;;;;;;5088562;28;44032;-69
2022/05/24 00:42:02;;;;;;;1.10;1.10;;;22.00;70.80;;;;;;5088524;28;43581;-69
2022/05/24 00:44:34;;;;;;;1.10;1.10;;;22.00;71.40;;;;;;5087900;28;44778;-69
2022/05/24 00:47:04;;;;;;;1.00;1.00;;;22.10;71.20;;;;;;5069462;28;43976;-71
2022/05/24 00:49:33;;;;;;;1.20;1.20;;;22.20;70.60;;;;;;5087743;27;44010;-70
2022/05/24 00:52:05;;;;;;;1.10;1.10;;;22.20;70.50;;;;;;5088203;28;44243;-70
2022/05/24 00:54:33;;;;;;;1.13;1.13;;;22.20;70.00;;;;;;5087620;28;43958;-70
2022/05/24 00:57:08;;;;;;;1.10;1.10;;;22.10;69.50;;;;;;5087906;28;43989;-68
2022/05/24 00:59:38;;;;;;;1.50;1.50;;;22.10;69.70;;;;;;5088238;28;43866;-69
2022/05/24 01:02:06;;;;;;;1.10;1.10;;;22.00;69.90;;;;;;5088199;28;43949;-70
2022/05/24 01:04:35;;;;;;;1.17;1.10;;;21.90;70.00;;;;;;5069301;28;46011;-71
2022/05/24 01:07:05;;;;;;;1.10;1.10;;;21.90;70.20;;;;;;5087400;28;43435;-71
2022/05/24 01:09:40;;;;;;;1.00;1.00;;;21.80;70.10;;;;;;5087834;28;44003;-71
2022/05/24 01:12:10;;;;;;;1.13;1.13;;;21.80;71.40;;;;;;5088101;28;44082;-71
2022/05/24 01:14:37;;;;;;;1.10;1.10;;;21.90;71.60;;;;;;5087417;28;44014;-71
2022/05/24 01:17:06;;;;;;;1.13;1.13;;;22.10;71.50;;;;;;5087514;28;44105;-72
2022/05/24 01:19:36;;;;;;;1.30;1.30;;;22.20;70.90;;;;;;5069387;28;43998;-71
2022/05/24 01:22:17;;;;;;;1.10;1.10;;;22.40;70.20;;;;;;5088271;28;43398;-71
2022/05/24 01:24:47;;;;;;;1.23;1.23;;;22.50;69.70;;;;;;5087781;28;44022;-71
2022/05/24 01:27:19;;;;;;;1.07;1.07;;;22.50;69.60;;;;;;5087471;28;44128;-72
2022/05/24 01:29:47;;;;;;;1.20;1.20;;;22.40;69.40;;;;;;5087574;28;43949;-70
2022/05/24 01:37:46;;;;;;;1.10;1.10;;;22.10;70.20;;;;;;5087427;28;44008;-70
2022/05/24 01:40:14;;;;;;;1.30;1.30;;;22.00;69.70;;;;;;5079380;28;44018;-72
2022/05/24 01:42:44;;;;;;;1.00;1.00;;;22.00;72.00;;;;;;5087615;28;44251;-71
2022/05/24 01:45:13;;;;;;;1.10;1.10;;;22.10;71.40;;;;;;5086970;28;45032;-71
2022/05/24 01:47:42;;;;;;;1.20;1.20;;;22.20;70.90;;;;;;5087069;28;43665;-72
2022/05/24 01:50:12;;;;;;;1.00;1.00;;;22.30;70.40;;;;;;5087283;28;43378;-71
2022/05/24 01:52:42;;;;;;;1.17;1.17;;;22.20;70.20;;;;;;5087599;28;43840;-71
2022/05/24 01:55:14;;;;;;;1.20;1.20;;;22.10;69.50;;;;;;5086930;28;43957;-71
2022/05/24 01:57:45;;;;;;;1.00;1.00;;;22.10;69.50;;;;;;5087178;28;44019;-71
2022/05/24 02:00:15;;;;;;;1.10;1.10;;;22.00;69.70;;;;;;5087287;28;43955;-72
2022/05/24 02:02:44;;;;;;;1.20;1.20;;;21.90;69.90;;;;;;5086830;28;44032;-71
2022/05/24 02:05:12;;;;;;;1.00;1.00;;;21.90;70.20;;;;;;5087028;28;43986;-70
2022/05/24 02:07:40;;;;;;;1.00;1.00;;;21.80;70.10;;;;;;5086847;28;43991;-71
2022/05/24 02:10:09;;;;;;;1.10;1.10;;;21.80;70.30;;;;;;5087024;28;43970;-71
2022/05/24 02:12:38;;;;;;;1.10;1.10;;;21.80;71.50;;;;;;5068726;28;43576;-71
2022/05/24 02:15:10;;;;;;;1.20;1.20;;;21.90;71.90;;;;;;5068321;28;43985;-70
2022/05/24 02:17:40;;;;;;;1.07;1.07;;;22.10;71.40;;;;;;5086936;28;43697;-70
2022/05/24 02:20:10;;;;;;;0.80;0.80;;;22.30;70.60;;;;;;5087354;28;43470;-70
2022/05/24 02:22:38;;;;;;;1.00;1.00;;;22.40;70.00;;;;;;5087351;28;43447;-71
2022/05/24 02:25:08;;;;;;;0.90;0.90;;;22.50;69.60;;;;;;5086632;28;44923;-71
2022/05/24 02:27:39;;;;;;;1.00;1.00;;;22.50;69.70;;;;;;5086766;28;44014;-71
2022/05/24 02:30:09;;;;;;;1.10;1.10;;;22.40;69.30;;;;;;5086888;28;43896;-71
2022/05/24 02:32:37;;;;;;;1.00;1.00;;;22.20;69.00;;;;;;5087216;28;43404;-71
2022/05/24 02:35:06;;;;;;;0.87;0.87;;;22.10;69.10;;;;;;5086689;28;43950;-72
2022/05/24 02:37:36;;;;;;;1.17;1.17;;;22.10;69.50;;;;;;5067990;28;44416;-72
2022/05/24 02:42:50;;;;;;;0.90;0.90;;;21.90;71.10;;;;;;5068607;28;43954;-72
2022/05/24 02:45:22;;;;;;;0.97;0.97;;;22.00;71.30;;;;;;5086520;28;43860;-71
2022/05/24 02:47:50;;;;;;;1.10;0.97;;;22.20;70.90;;;;;;5086326;28;44031;-70
2022/05/24 02:50:20;;;;;;;1.03;1.03;;;22.20;70.60;;;;;;5068117;28;43913;-72
2022/05/24 02:52:48;;;;;;;1.10;1.10;;;22.20;70.10;;;;;;5086427;28;44086;-72
2022/05/24 02:55:18;;;;;;;1.10;1.10;;;22.10;69.50;;;;;;5070226;28;44595;-71
2022/05/24 02:57:46;;;;;;;1.10;1.10;;;22.00;69.50;;;;;;5067944;28;45013;-71
2022/05/24 03:00:16;;;;;;;1.00;1.00;;;21.90;69.70;;;;;;5086569;28;43885;-72
2022/05/24 03:02:45;;;;;;;1.13;1.13;;;21.90;70.00;;;;;;5086736;28;43981;-72
2022/05/24 03:05:14;;;;;;;1.03;1.03;;;21.80;70.10;;;;;;5086226;28;45088;-73
2022/05/24 03:10:27;;;;;;;0.97;0.97;;;21.70;70.80;;;;;;5068058;28;43930;-71
2022/05/24 03:15:40;;;;;;;1.00;1.00;;;22.00;71.60;;;;;;5089406;28;44151;-71
2022/05/24 03:18:11;;;;;;;0.90;0.90;;;22.10;70.90;;;;;;5089467;28;43468;-71
2022/05/24 03:20:39;;;;;;;1.10;1.10;;;22.30;70.10;;;;;;5071249;28;44094;-71
2022/05/24 03:23:07;;;;;;;1.07;1.07;;;22.40;69.80;;;;;;5090010;28;43964;-71
2022/05/24 03:25:35;;;;;;;1.00;1.00;;;22.40;69.90;;;;;;5089914;28;43967;-72
2022/05/24 03:28:03;;;;;;;1.30;1.03;;;22.30;69.60;;;;;;5089451;28;43886;-71
2022/05/24 03:30:32;;;;;;;0.93;0.93;;;22.10;69.10;;;;;;5089409;28;44014;-71
2022/05/24 03:33:00;;;;;;;0.90;0.90;;;22.10;69.40;;;;;;5089526;28;43979;-71
2022/05/24 03:35:29;;;;;;;1.00;1.00;;;22.00;69.60;;;;;;5089209;28;43919;-71
2022/05/24 03:37:58;;;;;;;0.90;0.90;;;21.90;69.80;;;;;;5089734;28;43966;-72
2022/05/24 03:40:25;;;;;;;0.90;0.90;;;21.90;71.20;;;;;;5089562;28;43884;-72
2022/05/24 03:42:54;;;;;;;0.97;0.97;;;21.90;71.60;;;;;;5089613;28;43398;-71
2022/05/24 03:45:23;;;;;;;1.00;1.00;;;22.10;71.20;;;;;;5088917;28;44013;-71
2022/05/24 03:47:51;;;;;;;0.90;0.90;;;22.20;70.50;;;;;;5088875;28;44037;-71
2022/05/24 03:50:20;;;;;;;1.33;1.33;;;22.30;70.00;;;;;;5089385;28;43981;-71
2022/05/24 03:52:49;;;;;;;1.23;1.10;;;22.30;69.90;;;;;;5089417;28;43989;-72
2022/05/24 03:55:17;;;;;;;1.43;1.43;;;22.20;69.60;;;;;;5089126;28;43916;-71
2022/05/24 03:58:00;;;;;;;2.00;1.60;;;22.10;69.20;;;;;;5089110;28;43999;-71
2022/05/24 04:00:30;;;;;;;2.30;2.10;;;22.00;69.30;;;;;;5070940;28;43871;-72
2022/05/24 04:02:58;;;;;;;2.93;2.37;;;21.90;69.60;;;;;;5087741;28;43969;-71
2022/05/24 04:05:26;;;;;;;5.00;2.70;;;21.90;70.00;;;;;;5064206;28;45219;-72
2022/05/24 04:07:55;;;;;;;9.13;3.90;;;21.80;70.30;;;;;;5088984;28;44152;-72
2022/05/24 04:10:29;;;;;;;12.87;4.80;;;21.80;71.40;;;;;;5089354;28;43330;-72
2022/05/24 04:12:57;;;;;;;10.13;4.00;;;21.90;71.60;;;;;;5089153;28;44068;-71
2022/05/24 04:15:25;;;;;;;16.10;5.53;;;22.10;71.10;;;;;;5088874;28;44860;-71
2022/05/24 04:17:54;;;;;;;12.80;4.50;;;22.20;70.30;;;;;;5088594;28;43868;-71
2022/05/24 04:20:22;;;;;;;11.93;4.97;;;22.30;69.90;;;;;;5071776;27;44058;-72
2022/05/24 04:22:51;;;;;;;12.50;5.23;;;22.30;69.70;;;;;;5109691;27;43547;-72
2022/05/24 04:25:21;;;;;;;10.67;4.47;;;22.20;69.20;;;;;;5090054;27;46243;-72
2022/05/24 04:27:49;;;;;;;8.93;4.87;;;22.10;69.10;;;;;;5090605;27;44719;-71
2022/05/24 04:30:20;;;;;;;9.57;4.63;;;22.00;69.10;;;;;;5109222;27;44395;-71
2022/05/24 04:32:51;;;;;;;10.00;4.63;;;21.90;69.30;;;;;;5109260;27;43918;-73
2022/05/24 04:35:19;;;;;;;16.10;5.03;;;21.80;69.50;;;;;;5108675;27;44781;-71
2022/05/24 04:37:47;;;;;;;17.40;6.10;;;21.80;70.70;;;;;;5109222;27;43387;-70
2022/05/24 04:42:18;;;;;;;7.33;4.80;;;21.80;71.10;;;;;;5109265;27;43364;-71
2022/05/24 04:43:06;;;;;;;10.97;5.60;;;22.00;70.80;;;;;;5109491;27;43332;-71
2022/05/24 04:45:34;;;;;;;12.13;5.60;;;22.10;70.40;;;;;;5108762;27;44089;-71
2022/05/24 04:48:02;;;;;;;9.50;4.57;;;22.10;69.90;;;;;;5108733;27;43330;-71
2022/05/24 04:50:33;;;;;;;10.40;4.40;;;22.00;69.30;;;;;;5109104;27;43962;-71
2022/05/24 04:53:01;;;;;;;8.87;4.67;;;21.90;69.20;;;;;;5109361;27;43357;-72
2022/05/24 04:55:30;;;;;;;10.00;4.77;;;21.80;69.20;;;;;;5108676;27;43945;-71
2022/05/24 04:57:58;;;;;;;9.30;4.70;;;21.80;69.30;;;;;;5109049;27;43942;-71
2022/05/24 05:00:26;;;;;;;8.33;4.40;;;21.70;69.40;;;;;;5090148;27;44002;-71
2022/05/24 05:02:54;;;;;;;9.10;4.57;;;21.70;69.50;;;;;;5109105;27;43872;-72
2022/05/24 05:05:22;;;;;;;9.87;4.33;;;21.60;69.90;;;;;;5108497;27;45034;-72
2022/05/24 05:07:53;;;;;;;9.97;4.57;;;21.70;70.80;;;;;;5108212;27;44099;-71
2022/05/24 05:10:22;;;;;;;7.50;4.57;;;21.80;71.40;;;;;;5108901;27;43371;-71
2022/05/24 05:12:54;;;;;;;8.63;4.53;;;22.00;70.30;;;;;;5090692;27;44266;-71
2022/05/24 05:15:24;;;;;;;6.60;3.77;;;22.20;69.70;;;;;;5108105;27;44195;-71
2022/05/24 05:17:52;;;;;;;5.50;3.90;;;22.30;69.30;;;;;;5108355;27;43374;-72
2022/05/24 05:20:20;;;;;;;7.13;4.03;;;22.30;69.20;;;;;;5108536;27;43825;-71
2022/05/24 05:22:48;;;;;;;6.07;3.80;;;22.20;69.00;;;;;;5090227;27;44018;-71
2022/05/24 05:25:15;;;;;;;6.43;4.10;;;22.10;68.50;;;;;;5108500;27;44084;-71
2022/05/24 05:27:45;;;;;;;7.13;4.27;;;22.00;68.50;;;;;;5107997;27;43947;-71
2022/05/24 05:33:00;;;;;;;8.13;4.13;;;21.90;68.90;;;;;;5108662;27;44416;-71
2022/05/24 05:35:28;;;;;;;7.03;3.87;;;21.80;70.10;;;;;;5107382;27;43952;-71
2022/05/24 05:37:56;;;;;;;5.73;4.10;;;21.80;70.60;;;;;;5108034;27;44078;-72
2022/05/24 05:40:24;;;;;;;10.13;4.63;;;21.90;70.50;;;;;;5089503;27;43415;-72
2022/05/24 05:42:52;;;;;;;4.27;3.70;;;22.00;69.90;;;;;;5108302;27;43956;-72
2022/05/24 05:45:22;;;;;;;4.37;3.70;;;22.00;69.60;;;;;;5108059;27;43959;-71
2022/05/24 05:47:52;;;;;;;5.37;3.70;;;22.00;69.30;;;;;;5107404;27;44054;-71
2022/05/24 05:50:21;;;;;;;3.97;3.60;;;22.00;68.80;;;;;;5108294;27;43907;-72
2022/05/24 05:52:49;;;;;;;4.87;3.70;;;21.90;68.80;;;;;;5089677;27;43554;-71
2022/05/24 05:55:19;;;;;;;4.90;3.43;;;21.80;68.90;;;;;;5107954;27;43897;-71
2022/05/24 05:57:47;;;;;;;4.73;3.63;;;21.80;69.10;;;;;;5107581;27;43937;-72
2022/05/24 06:00:16;;;;;;;5.00;3.90;;;21.70;69.10;;;;;;5107960;27;43945;-72
2022/05/24 06:02:47;;;;;;;4.23;3.63;;;21.70;69.30;;;;;;5104949;27;43988;-72
2022/05/24 06:05:15;;;;;;;5.37;4.00;;;21.70;70.00;;;;;;5089449;27;45386;-71
2022/05/24 06:07:43;;;;;;;5.03;3.67;;;21.70;70.60;;;;;;5107595;27;43356;-70
2022/05/24 06:10:12;;;;;;;4.47;3.30;;;21.90;70.30;;;;;;5089196;27;43974;-71
2022/05/24 06:12:39;;;;;;;4.27;3.33;;;22.10;69.80;;;;;;5108199;27;44016;-71
2022/05/24 06:15:09;;;;;;;5.70;3.47;;;22.20;69.20;;;;;;5088882;27;45586;-71
2022/05/24 06:17:45;;;;;;;4.13;3.40;;;22.30;68.80;;;;;;5107195;27;44152;-71
2022/05/24 06:20:15;;;;;;;4.13;3.50;;;22.30;68.70;;;;;;5107755;27;44341;-72
2022/05/24 06:22:43;;;;;;;3.23;2.97;;;22.20;68.60;;;;;;5108121;27;44010;-72
2022/05/24 06:25:13;;;;;;;4.10;2.97;;;22.10;68.20;;;;;;5088816;27;46004;-72
2022/05/24 06:27:41;;;;;;;4.07;3.20;;;22.00;68.10;;;;;;5088874;27;45172;-71
2022/05/24 06:30:12;;;;;;;4.77;3.20;;;21.90;68.30;;;;;;5107753;27;43829;-71
2022/05/24 06:32:40;;;;;;;4.13;3.30;;;21.90;68.60;;;;;;5107899;27;43955;-72
2022/05/24 06:35:11;;;;;;;3.17;2.87;;;21.80;70.10;;;;;;5107293;27;44773;-72
2022/05/24 06:37:41;;;;;;;3.07;2.87;;;21.90;70.20;;;;;;5107489;27;43980;-72
2022/05/24 06:40:09;;;;;;;4.13;3.27;;;22.10;69.90;;;;;;5107533;27;43758;-71
2022/05/24 06:42:37;;;;;;;3.47;3.17;;;22.10;69.30;;;;;;5107406;27;44066;-72
2022/05/24 06:45:07;;;;;;;4.03;2.87;;;22.10;69.20;;;;;;5087847;27;45770;-71
2022/05/24 06:47:35;;;;;;;3.47;3.17;;;22.00;68.50;;;;;;5108305;27;43986;-72
2022/05/24 06:50:03;;;;;;;3.77;2.93;;;21.90;68.30;;;;;;5110815;27;43919;-71
2022/05/24 06:52:33;;;;;;;2.83;2.60;;;21.90;68.60;;;;;;5111329;27;44231;-70
2022/05/24 06:55:01;;;;;;;3.00;2.80;;;21.80;68.70;;;;;;5111006;27;43911;-72
2022/05/24 06:57:28;;;;;;;2.70;2.50;;;21.70;68.70;;;;;;5092240;27;44644;-71
2022/05/24 07:02:42;;;;;;;3.00;2.70;;;21.60;69.00;;;;;;5111082;27;43989;-71
2022/05/24 07:05:12;;;;;;;3.10;2.90;;;21.60;70.10;;;;;;5110332;27;43913;-72
2022/05/24 07:07:41;;;;;;;3.27;3.00;;;21.80;70.40;;;;;;5110424;27;43974;-71
2022/05/24 07:10:12;;;;;;;3.07;2.83;;;22.00;70.00;;;;;;5110778;27;43365;-71
2022/05/24 07:12:40;;;;;;;3.07;2.77;;;22.20;69.40;;;;;;5110664;27;43926;-72
2022/05/24 07:15:08;;;;;;;2.73;2.53;;;22.30;68.70;;;;;;5110280;27;43926;-71
2022/05/24 07:17:37;;;;;;;2.73;2.53;;;22.30;68.70;;;;;;5110393;27;43892;-71
2022/05/24 07:20:06;;;;;;;2.63;2.43;;;22.20;68.40;;;;;;5110407;27;43917;-71
2022/05/24 07:22:35;;;;;;;2.90;2.70;;;22.10;68.00;;;;;;5110718;27;43564;-71
2022/05/24 07:25:10;;;;;;;2.50;2.40;;;22.00;67.90;;;;;;5091284;27;46029;-71
2022/05/24 07:27:37;;;;;;;2.90;2.70;;;21.90;68.00;;;;;;5110357;27;43888;-71
2022/05/24 07:30:10;;;;;;;2.87;2.67;;;21.90;68.30;;;;;;5110484;27;43855;-70
2022/05/24 07:32:37;;;;;;;2.67;2.47;;;21.80;69.10;;;;;;5110777;27;43937;-72
2022/05/24 07:35:06;;;;;;;2.73;2.53;;;21.80;70.10;;;;;;5109856;27;44091;-71
2022/05/24 07:37:34;;;;;;;3.27;2.70;;;21.90;70.10;;;;;;5087904;28;44633;-71
2022/05/24 07:48:16;;;;;;;2.37;2.27;;;22.00;68.20;;;;;;5091133;27;43991;-70
2022/05/24 07:50:44;;;;;;;2.80;2.53;;;21.80;68.20;;;;;;5110340;27;44040;-72
2022/05/24 07:53:12;;;;;;;2.90;2.70;;;21.80;68.50;;;;;;5110485;27;44017;-71
2022/05/24 07:55:40;;;;;;;2.50;2.30;;;21.70;68.50;;;;;;5109448;27;43938;-71
2022/05/24 07:58:09;;;;;;;2.10;2.00;;;21.70;68.70;;;;;;5109918;27;43849;-71
2022/05/24 08:00:38;;;;;;;2.80;2.60;;;21.60;68.70;;;;;;5109199;27;43402;-71
2022/05/24 08:03:06;;;;;;;2.53;2.43;;;21.60;69.50;;;;;;5091690;27;44027;-71
2022/05/24 08:05:35;;;;;;;2.23;2.00;;;21.60;70.10;;;;;;5109669;27;44006;-72
2022/05/24 08:08:03;;;;;;;2.30;2.20;;;21.80;69.90;;;;;;5109457;27;43967;-70
2022/05/24 08:10:31;;;;;;;2.30;2.20;;;22.00;69.60;;;;;;5109570;27;43927;-71
2022/05/24 08:12:59;;;;;;;1.93;1.83;;;22.20;69.00;;;;;;5110410;27;43912;-71
2022/05/24 08:15:30;;;;;;;2.57;2.37;;;22.30;68.60;;;;;;5109496;27;44989;-72
2022/05/24 08:17:58;;;;;;;2.40;2.30;;;22.20;68.40;;;;;;5109454;27;43293;-71
2022/05/24 08:20:26;;;;;;;2.57;2.43;;;22.20;68.10;;;;;;5109574;27;43378;-71
2022/05/24 08:22:54;;;;;;;2.30;2.17;;;22.10;67.70;;;;;;5091282;27;44290;-71
2022/05/24 08:25:22;;;;;;;2.50;2.30;;;22.00;67.80;;;;;;5108958;27;44035;-71
2022/05/24 08:27:49;;;;;;;2.20;2.10;;;21.90;68.00;;;;;;5090593;27;45068;-71
2022/05/24 08:30:19;;;;;;;2.40;2.30;;;21.80;68.20;;;;;;5109429;27;43940;-70
2022/05/24 08:32:48;;;;;;;2.40;2.30;;;21.70;69.40;;;;;;5109442;27;43895;-72
2022/05/24 08:35:17;;;;;;;2.70;2.50;;;21.80;69.90;;;;;;5108575;27;44946;-72
2022/05/24 08:37:46;;;;;;;2.33;2.23;;;21.90;69.70;;;;;;5090614;27;45097;-71
2022/05/24 08:40:15;;;;;;;2.10;2.00;;;22.00;69.10;;;;;;5108956;27;43890;-71
2022/05/24 08:42:54;;;;;;;1.90;1.80;;;22.00;68.60;;;;;;5109154;27;43941;-71
2022/05/24 08:48:26;;;;;;;2.33;2.10;;;21.80;68.10;;;;;;5108849;27;43881;-71
2022/05/24 08:50:57;;;;;;;2.03;1.93;;;21.80;68.30;;;;;;5109023;27;43810;-71
2022/05/24 08:53:28;;;;;;;2.50;2.40;;;21.70;68.40;;;;;;5109510;27;44163;-71
2022/05/24 08:55:56;;;;;;;2.20;2.10;;;21.60;68.50;;;;;;5108819;27;43644;-71
2022/05/24 08:58:29;;;;;;;2.03;1.93;;;21.60;68.70;;;;;;5108799;27;43423;-71
2022/05/24 09:00:57;;;;;;;2.50;1.97;;;21.60;69.20;;;;;;5109200;27;43431;-72
2022/05/24 09:03:27;;;;;;;2.70;2.50;;;21.60;70.10;;;;;;5109215;27;43411;-71
2022/05/24 09:05:58;;;;;;;2.27;2.17;;;21.80;70.10;;;;;;5108491;27;44069;-71
2022/05/24 09:08:27;;;;;;;2.30;2.20;;;22.00;69.40;;;;;;5109095;27;43903;-71
2022/05/24 09:11:02;;;;;;;2.00;1.87;;;22.10;68.90;;;;;;5108666;27;43995;-71
2022/05/24 09:13:53;;;;;;;2.10;2.00;;;22.20;68.60;;;;;;5090607;27;43981;-71
2022/05/24 09:16:21;;;;;;;1.90;1.80;;;22.20;68.40;;;;;;5089326;27;47183;-71
2022/05/24 09:18:54;;;;;;;2.20;2.00;;;22.10;67.80;;;;;;5108432;27;44046;-71
2022/05/24 09:21:25;;;;;;;1.83;1.80;;;22.00;67.70;;;;;;5108650;27;43745;-71
2022/05/24 09:23:56;;;;;;;1.93;1.83;;;21.90;67.90;;;;;;5108889;27;43868;-70
2022/05/24 09:26:24;;;;;;;2.30;2.20;;;21.80;68.10;;;;;;5089653;27;46270;-71
2022/05/24 09:28:53;;;;;;;2.00;1.90;;;21.70;68.20;;;;;;5108359;27;43943;-71
2022/05/24 09:31:29;;;;;;;2.00;1.90;;;21.70;69.80;;;;;;5108330;27;43957;-71
2022/05/24 09:34:00;;;;;;;2.07;1.97;;;21.70;69.90;;;;;;5108853;27;43958;-71
2022/05/24 09:36:32;;;;;;;1.87;1.83;;;21.90;69.60;;;;;;5089260;27;45725;-71
2022/05/24 09:39:01;;;;;;;2.17;2.07;;;21.90;69.00;;;;;;5107929;27;43961;-71
2022/05/24 09:41:30;;;;;;;2.10;2.00;;;21.90;68.20;;;;;;5108359;27;44030;-70
2022/05/24 09:44:04;;;;;;;1.70;1.70;;;21.80;68.00;;;;;;5108891;27;43901;-71
2022/05/24 09:46:32;;;;;;;1.90;1.80;;;21.80;68.20;;;;;;5107981;27;43916;-71
2022/05/24 09:49:07;;;;;;;2.03;1.93;;;21.70;68.30;;;;;;5107792;27;44058;-71
2022/05/24 09:51:38;;;;;;;1.87;1.80;;;21.60;68.50;;;;;;5108238;27;43955;-72
2022/05/24 09:54:13;;;;;;;1.77;1.70;;;21.60;68.70;;;;;;5090313;27;43547;-71
2022/05/24 09:57:00;;;;;;;1.53;1.53;;;21.50;68.70;;;;;;5108008;27;45104;-71
2022/05/24 09:59:28;;;;;;;1.60;1.60;;;21.50;69.40;;;;;;5089874;27;43987;-70
2022/05/24 10:01:56;;;;;;;2.00;1.90;;;21.60;70.00;;;;;;5108185;27;43356;-71
2022/05/24 10:04:27;;;;;;;2.03;1.93;;;21.70;69.80;;;;;;5108323;27;43573;-71
2022/05/24 10:06:57;;;;;;;1.70;1.70;;;21.90;69.50;;;;;;5088999;27;45753;-71
2022/05/24 10:09:46;;;;;;;2.10;2.00;;;22.10;68.90;;;;;;5089070;27;45141;-72
2022/05/24 10:12:21;;;;;;;1.97;1.90;;;22.20;68.20;;;;;;5089072;27;43978;-72
2022/05/24 10:14:52;;;;;;;1.93;1.83;;;22.10;68.00;;;;;;5089502;27;43933;-71
2022/05/24 10:17:23;;;;;;;1.70;1.63;;;22.10;67.70;;;;;;5107500;27;43950;-71
2022/05/24 10:19:59;;;;;;;1.77;1.67;;;22.00;67.60;;;;;;5107586;27;43453;-71
2022/05/24 10:22:34;;;;;;;1.73;1.70;;;21.80;67.70;;;;;;5108981;27;43940;-71
2022/05/24 10:25:11;;;;;;;1.90;1.80;;;21.80;68.00;;;;;;5093055;27;43432;-71
2022/05/24 10:27:44;;;;;;;1.73;1.63;;;21.70;68.20;;;;;;5092051;27;45852;-71
2022/05/24 10:30:16;;;;;;;1.93;1.90;;;21.60;69.60;;;;;;5111110;27;43979;-71
2022/05/24 10:38:59;;;;;;;2.07;1.97;;;21.90;69.50;;;;;;5111480;27;43968;-70
2022/05/24 10:41:28;;;;;;;1.60;1.60;;;21.90;68.10;;;;;;5092463;27;46444;-70
2022/05/24 10:44:00;;;;;;;1.90;1.80;;;21.80;68.00;;;;;;5111224;27;43351;-72
2022/05/24 10:46:32;;;;;;;1.60;1.60;;;21.70;68.10;;;;;;5111340;27;43936;-71
2022/05/24 10:49:03;;;;;;;1.70;1.70;;;21.60;68.20;;;;;;5110892;27;43853;-71
2022/05/24 10:51:35;;;;;;;1.80;1.70;;;21.60;68.50;;;;;;5110814;27;43919;-71
2022/05/24 10:54:06;;;;;;;1.80;1.50;;;21.50;68.50;;;;;;5110951;27;43900;-70
2022/05/24 10:56:40;;;;;;;1.97;1.90;;;21.50;68.80;;;;;;5110935;27;43381;-72
2022/05/24 10:59:24;;;;;;;1.77;1.67;;;21.50;68.80;;;;;;5110644;27;43990;-72
2022/05/24 11:01:56;;;;;;;1.87;1.70;;;21.60;69.50;;;;;;5110655;27;43835;-71
2022/05/24 11:04:27;;;;;;;1.57;1.57;;;21.80;69.40;;;;;;5110813;27;43762;-72
2022/05/24 11:06:59;;;;;;;1.60;1.60;;;22.00;69.10;;;;;;5110933;27;43983;-71
2022/05/24 11:09:28;;;;;;;1.53;1.53;;;22.10;68.50;;;;;;5110787;27;43894;-72
2022/05/24 11:12:00;;;;;;;2.00;1.90;;;22.10;68.10;;;;;;5110767;27;43947;-72
2022/05/24 11:14:32;;;;;;;2.10;1.60;;;22.10;67.70;;;;;;5110999;27;44027;-71
2022/05/24 11:17:00;;;;;;;1.60;1.60;;;22.00;67.40;;;;;;5111018;27;43951;-71
2022/05/24 11:19:31;;;;;;;1.70;1.60;;;21.90;67.60;;;;;;5110589;27;43949;-72
2022/05/24 11:22:04;;;;;;;1.80;1.70;;;21.80;67.70;;;;;;5110741;27;44020;-71
2022/05/24 11:24:34;;;;;;;1.83;1.73;;;21.70;68.00;;;;;;5110424;27;43911;-71
2022/05/24 11:27:02;;;;;;;1.70;1.70;;;21.60;68.10;;;;;;5110599;27;43962;-72
2022/05/24 11:29:33;;;;;;;1.50;1.50;;;21.60;69.50;;;;;;5110241;27;43932;-72
2022/05/24 11:32:02;;;;;;;1.87;1.80;;;21.70;69.70;;;;;;5091364;27;44839;-71
2022/05/24 11:34:32;;;;;;;1.87;1.77;;;21.80;69.20;;;;;;5109399;27;43934;-71
2022/05/24 11:37:11;;;;;;;1.57;1.57;;;21.90;68.70;;;;;;5091764;27;44054;-71
2022/05/24 11:39:39;;;;;;;1.47;1.47;;;21.90;68.20;;;;;;5110183;27;43909;-71
2022/05/24 11:42:29;;;;;;;1.93;1.67;;;21.80;67.90;;;;;;5091442;27;45187;-71
2022/05/24 11:45:00;;;;;;;1.20;1.20;;;21.70;68.00;;;;;;5110259;27;43900;-71
2022/05/24 11:47:56;;;;;;;1.60;1.60;;;21.60;68.20;;;;;;5110292;27;43994;-71
2022/05/24 11:50:41;;;;;;;1.77;1.67;;;21.60;68.40;;;;;;5109899;27;44325;-71
2022/05/24 11:53:11;;;;;;;1.50;1.40;;;21.50;68.50;;;;;;5091293;27;45019;-71
2022/05/24 11:55:47;;;;;;;1.67;1.57;;;21.50;68.70;;;;;;5109611;27;44022;-71
2022/05/24 11:58:49;;;;;;;1.27;1.27;;;21.50;69.20;;;;;;5110273;27;43382;-72
2022/05/24 12:01:52;;;;;;;1.60;1.50;;;21.50;69.80;;;;;;5109541;27;44698;-71
2022/05/24 12:10:49;;;;;;;1.50;1.50;;;22.00;68.00;;;;;;5091348;27;43857;-71
2022/05/24 12:13:38;;;;;;;1.70;1.60;;;22.10;67.80;;;;;;5109434;27;44256;-71
2022/05/24 12:16:09;;;;;;;1.40;1.40;;;22.00;67.20;;;;;;5109107;27;44049;-71
2022/05/24 12:18:40;;;;;;;1.00;1.00;;;21.90;67.20;;;;;;5090960;27;43890;-71
2022/05/24 12:21:08;;;;;;;1.73;1.63;;;21.80;67.30;;;;;;5109863;27;43903;-71
2022/05/24 12:23:44;;;;;;;1.30;1.30;;;21.70;67.60;;;;;;5108965;27;43907;-71
2022/05/24 12:26:17;;;;;;;1.37;1.37;;;21.60;67.80;;;;;;5109400;27;44127;-71
2022/05/24 12:28:50;;;;;;;1.40;1.40;;;21.60;68.60;;;;;;5109369;27;43941;-71
2022/05/24 12:31:30;;;;;;;1.30;1.30;;;21.60;69.80;;;;;;5109840;27;43852;-71
2022/05/24 12:33:59;;;;;;;1.50;1.50;;;21.70;69.50;;;;;;5090540;27;44076;-71
2022/05/24 12:36:30;;;;;;;1.30;1.30;;;21.80;68.90;;;;;;5109043;27;43425;-72
2022/05/24 12:39:21;;;;;;;1.20;1.20;;;21.80;68.50;;;;;;5109248;27;43353;-71
2022/05/24 12:41:52;;;;;;;1.30;1.30;;;21.70;67.80;;;;;;5109543;27;43866;-71
2022/05/24 12:44:25;;;;;;;1.40;1.40;;;21.60;67.80;;;;;;5109119;27;43951;-72
2022/05/24 12:46:54;;;;;;;1.10;1.10;;;21.60;68.00;;;;;;5089471;27;45189;-72
2022/05/24 12:49:23;;;;;;;1.50;1.50;;;21.50;67.40;;;;;;5090509;27;44005;-72
2022/05/24 12:51:54;;;;;;;1.13;1.13;;;21.50;68.40;;;;;;5109468;27;44066;-71
2022/05/24 12:54:32;;;;;;;1.20;1.20;;;21.50;68.20;;;;;;5109160;27;43913;-71
2022/05/24 12:57:03;;;;;;;1.50;1.40;;;21.40;68.50;;;;;;5109080;27;43458;-71
2022/05/24 12:59:34;;;;;;;1.10;1.10;;;21.40;70.40;;;;;;5109121;27;44024;-72
2022/05/24 13:02:28;;;;;;;1.20;1.20;;;21.50;69.80;;;;;;5109278;27;43883;-71
2022/05/24 13:04:58;;;;;;;1.13;1.13;;;21.70;69.40;;;;;;5108462;27;44944;-72
2022/05/24 13:07:37;;;;;;;1.27;1.27;;;21.90;68.80;;;;;;5108741;27;44000;-71
2022/05/24 13:10:11;;;;;;;1.20;1.20;;;22.00;68.00;;;;;;5108710;27;44144;-72
2022/05/24 13:12:41;;;;;;;1.23;1.23;;;22.00;68.00;;;;;;5109186;27;43864;-72
2022/05/24 13:15:11;;;;;;;1.17;1.17;;;21.90;67.40;;;;;;5108477;27;44295;-72
2022/05/24 13:17:41;;;;;;;1.20;1.20;;;21.80;67.20;;;;;;5107913;27;43974;-70
2022/05/24 13:20:10;;;;;;;1.20;1.20;;;21.80;67.50;;;;;;5089860;27;43345;-71
2022/05/24 13:22:42;;;;;;;1.00;1.00;;;21.70;67.70;;;;;;5108905;27;43854;-71
2022/05/24 13:25:16;;;;;;;1.00;1.00;;;21.60;67.90;;;;;;5108148;27;44009;-71
2022/05/24 13:27:54;;;;;;;1.20;1.20;;;21.50;68.60;;;;;;5089556;27;45063;-71
2022/05/24 13:33:37;;;;;;;1.13;1.13;;;21.70;69.50;;;;;;5108502;27;43405;-71
2022/05/24 13:36:18;;;;;;;1.10;1.10;;;21.80;68.90;;;;;;5107886;27;43869;-71
2022/05/24 13:38:51;;;;;;;1.00;1.00;;;21.80;68.20;;;;;;5107836;27;45221;-71
2022/05/24 13:41:30;;;;;;;0.90;0.90;;;21.70;67.90;;;;;;5108318;27;43920;-71
2022/05/24 13:44:22;;;;;;;0.90;0.90;;;21.60;68.00;;;;;;5108446;27;43888;-72
2022/05/24 13:46:53;;;;;;;1.10;1.10;;;21.50;68.10;;;;;;5089114;27;45950;-72
2022/05/24 13:49:39;;;;;;;1.10;1.10;;;21.50;68.30;;;;;;5108170;27;44280;-72
2022/05/24 13:52:27;;;;;;;0.83;0.83;;;21.50;68.50;;;;;;5107885;27;43293;-72
2022/05/24 13:55:12;;;;;;;1.20;1.20;;;21.40;68.50;;;;;;5108030;27;43938;-71